createdAt,value
2018-01-13T00:00:59.719Z,7.4
2018-01-13T00:02:02.132Z,7.4
2018-01-13T00:03:04.528Z,7.4
2018-01-13T00:04:06.941Z,7.4
2018-01-13T00:05:09.672Z,7.4
2018-01-13T00:06:12.087Z,7.4
2018-01-13T00:07:14.491Z,7.4
2018-01-13T00:08:16.902Z,7.4
2018-01-13T00:09:19.306Z,7.5
2018-01-13T00:10:21.719Z,7.4
2018-01-13T00:11:24.116Z,7.5
2018-01-13T00:12:26.525Z,7.5
2018-01-13T00:13:28.934Z,7.4
2018-01-13T00:14:31.920Z,7.4
2018-01-13T00:15:34.324Z,7.4
2018-01-13T00:16:36.730Z,7.4
2018-01-13T00:17:39.422Z,7.4
2018-01-13T00:18:41.846Z,7.4
2018-01-13T00:19:44.542Z,7.4
2018-01-13T00:20:46.945Z,7.4
2018-01-13T00:21:49.365Z,7.3
2018-01-13T00:22:51.779Z,7.3
2018-01-13T00:23:54.180Z,7.3
2018-01-13T00:24:56.584Z,7.3
2018-01-13T00:25:58.986Z,7.3
2018-01-13T00:27:01.678Z,7.3
2018-01-13T00:28:04.100Z,7.3
2018-01-13T00:29:06.507Z,7.3
2018-01-13T00:30:08.910Z,7.3
2018-01-13T00:31:11.321Z,7.3
2018-01-13T00:32:13.740Z,7.3
2018-01-13T00:33:16.137Z,7.3
2018-01-13T00:34:18.548Z,7.2
2018-01-13T00:35:20.967Z,7.2
2018-01-13T00:36:23.367Z,7.2
2018-01-13T00:37:25.765Z,7.2
2018-01-13T00:38:28.453Z,7.2
2018-01-13T00:39:30.849Z,7.2
2018-01-13T00:40:33.263Z,7.2
2018-01-13T00:41:35.954Z,7.2
2018-01-13T00:42:38.637Z,7.2
2018-01-13T00:43:41.054Z,7.2
2018-01-13T00:44:43.743Z,7.2
2018-01-13T00:45:46.145Z,7.2
2018-01-13T00:46:48.566Z,7.2
2018-01-13T00:47:50.972Z,7.2
2018-01-13T00:48:53.379Z,7.3
2018-01-13T00:49:55.790Z,7.3
2018-01-13T00:50:58.476Z,7.3
2018-01-13T00:52:00.887Z,7.3
2018-01-13T00:53:03.302Z,7.3
2018-01-13T00:54:05.692Z,7.3
2018-01-13T00:55:08.098Z,7.3
2018-01-13T00:56:10.513Z,7.3
2018-01-13T00:57:12.923Z,7.3
2018-01-13T00:58:15.325Z,7.3
2018-01-13T00:59:18.045Z,7.3
2018-01-13T01:00:20.735Z,7.3
2018-01-13T01:01:23.132Z,7.3
2018-01-13T01:02:25.539Z,7.2
2018-01-13T01:03:27.950Z,7.2
2018-01-13T01:04:30.359Z,7.2
2018-01-13T01:05:32.769Z,7.2
2018-01-13T01:06:35.172Z,7.2
2018-01-13T01:07:37.573Z,7.2
2018-01-13T01:08:39.993Z,7.2
2018-01-13T01:09:42.399Z,7.2
2018-01-13T01:10:44.804Z,7.2
2018-01-13T01:11:47.210Z,7.1
2018-01-13T01:12:49.620Z,7.1
2018-01-13T01:13:52.032Z,7.1
2018-01-13T01:14:54.444Z,7.1
2018-01-13T01:15:56.847Z,7.1
2018-01-13T01:16:59.533Z,7.1
2018-01-13T01:18:01.950Z,7.1
2018-01-13T01:19:04.378Z,7.1
2018-01-13T01:20:06.784Z,7.1
2018-01-13T01:21:09.198Z,7.1
2018-01-13T01:22:11.882Z,7.1
2018-01-13T01:23:14.288Z,7.1
2018-01-13T01:24:16.700Z,7.1
2018-01-13T01:25:19.108Z,7.1
2018-01-13T01:26:21.523Z,7.1
2018-01-13T01:27:23.935Z,7.1
2018-01-13T01:28:26.343Z,7.1
2018-01-13T01:29:28.758Z,7.2
2018-01-13T01:30:31.506Z,7.2
2018-01-13T01:31:33.908Z,7.2
2018-01-13T01:32:36.313Z,7.2
2018-01-13T01:33:38.717Z,7.3
2018-01-13T01:34:41.132Z,7.3
2018-01-13T01:35:43.533Z,7.3
2018-01-13T01:36:45.942Z,7.3
2018-01-13T01:37:48.636Z,7.3
2018-01-13T01:38:51.048Z,7.3
2018-01-13T01:39:53.456Z,7.3
2018-01-13T01:40:55.864Z,7.3
2018-01-13T01:41:58.264Z,7.3
2018-01-13T01:43:00.966Z,7.3
2018-01-13T01:44:03.368Z,7.3
2018-01-13T01:45:05.777Z,7.3
2018-01-13T01:46:08.190Z,7.3
2018-01-13T01:47:10.591Z,7.3
2018-01-13T01:48:13.283Z,7.3
2018-01-13T01:49:15.698Z,7.3
2018-01-13T01:50:18.098Z,7.3
2018-01-13T01:51:20.515Z,7.3
2018-01-13T01:52:22.924Z,7.3
2018-01-13T01:53:25.318Z,7.3
2018-01-13T01:54:27.729Z,7.3
2018-01-13T01:55:30.137Z,7.3
2018-01-13T01:56:32.542Z,7.3
2018-01-13T01:57:34.948Z,7.3
2018-01-13T01:58:37.357Z,7.2
2018-01-13T01:59:39.760Z,7.2
2018-01-13T02:00:42.172Z,7.2
2018-01-13T02:01:44.578Z,7.2
2018-01-13T02:02:46.979Z,7.2
2018-01-13T02:03:49.389Z,7.2
2018-01-13T02:04:51.788Z,7.2
2018-01-13T02:05:54.488Z,7.2
2018-01-13T02:06:56.903Z,7.2
2018-01-13T02:07:59.301Z,7.2
2018-01-13T02:09:01.706Z,7.2
2018-01-13T02:10:04.118Z,7.2
2018-01-13T02:11:06.527Z,7.2
2018-01-13T02:12:09.501Z,7.2
2018-01-13T02:13:11.909Z,7.2
2018-01-13T02:14:14.317Z,7.2
2018-01-13T02:15:16.739Z,7.2
2018-01-13T02:16:19.433Z,7.2
2018-01-13T02:17:21.826Z,7.1
2018-01-13T02:18:24.526Z,7.1
2018-01-13T02:19:26.937Z,7.1
2018-01-13T02:20:29.347Z,7.1
2018-01-13T02:21:31.754Z,7
2018-01-13T02:22:34.150Z,7
2018-01-13T02:23:36.874Z,7
2018-01-13T02:24:39.285Z,7
2018-01-13T02:25:41.688Z,6.9
2018-01-13T02:26:44.362Z,6.9
2018-01-13T02:27:46.759Z,6.9
2018-01-13T02:28:49.166Z,7
2018-01-13T02:29:51.572Z,7
2018-01-13T02:30:53.975Z,7
2018-01-13T02:31:56.394Z,7
2018-01-13T02:32:59.090Z,7
2018-01-13T02:34:01.491Z,7
2018-01-13T02:35:03.904Z,7
2018-01-13T02:36:06.314Z,7.1
2018-01-13T02:37:08.715Z,7.1
2018-01-13T02:38:11.127Z,7.1
2018-01-13T02:39:13.518Z,7.1
2018-01-13T02:40:15.921Z,7.1
2018-01-13T02:41:18.342Z,7.1
2018-01-13T02:42:20.737Z,7.2
2018-01-13T02:43:23.154Z,7.2
2018-01-13T02:44:25.561Z,7.2
2018-01-13T02:45:28.269Z,7.2
2018-01-13T02:46:30.674Z,7.2
2018-01-13T02:47:33.083Z,7.3
2018-01-13T02:48:35.762Z,7.3
2018-01-13T02:49:38.180Z,7.3
2018-01-13T02:50:40.588Z,7.3
2018-01-13T02:51:43.000Z,7.2
2018-01-13T02:52:45.410Z,7.2
2018-01-13T02:53:47.813Z,7.2
2018-01-13T02:54:50.221Z,7.1
2018-01-13T02:55:52.636Z,7.1
2018-01-13T02:56:55.044Z,7.1
2018-01-13T02:57:57.442Z,7.1
2018-01-13T02:58:59.848Z,7
2018-01-13T03:00:02.255Z,7
2018-01-13T03:01:04.669Z,7
2018-01-13T03:02:07.073Z,7
2018-01-13T03:03:09.488Z,7
2018-01-13T03:04:12.161Z,7
2018-01-13T03:05:14.580Z,7
2018-01-13T03:06:17.601Z,6.9
2018-01-13T03:07:20.004Z,6.9
2018-01-13T03:08:22.411Z,6.9
2018-01-13T03:09:24.815Z,6.9
2018-01-13T03:10:27.214Z,6.9
2018-01-13T03:11:29.626Z,6.9
2018-01-13T03:12:32.028Z,6.9
2018-01-13T03:13:34.439Z,6.9
2018-01-13T03:14:36.849Z,6.9
2018-01-13T03:15:39.553Z,6.9
2018-01-13T03:16:41.959Z,6.8
2018-01-13T03:17:44.359Z,6.8
2018-01-13T03:18:47.076Z,6.8
2018-01-13T03:19:49.479Z,6.8
2018-01-13T03:20:51.886Z,6.8
2018-01-13T03:21:54.279Z,6.8
2018-01-13T03:22:56.696Z,6.8
2018-01-13T03:23:59.089Z,6.8
2018-01-13T03:25:01.500Z,6.8
2018-01-13T03:26:03.901Z,6.8
2018-01-13T03:27:06.311Z,6.8
2018-01-13T03:28:08.717Z,6.8
2018-01-13T03:29:11.114Z,6.8
2018-01-13T03:30:13.523Z,6.8
2018-01-13T03:31:15.934Z,6.7
2018-01-13T03:32:18.332Z,6.7
2018-01-13T03:33:20.740Z,6.7
2018-01-13T03:34:23.142Z,6.7
2018-01-13T03:35:25.547Z,6.7
2018-01-13T03:36:27.960Z,6.7
2018-01-13T03:37:30.387Z,6.6
2018-01-13T03:38:33.047Z,6.6
2018-01-13T03:39:35.459Z,6.6
2018-01-13T03:40:37.871Z,6.6
2018-01-13T03:41:40.272Z,6.6
2018-01-13T03:42:42.677Z,6.6
2018-01-13T03:43:45.373Z,6.6
2018-01-13T03:44:48.058Z,6.6
2018-01-13T03:45:50.468Z,6.6
2018-01-13T03:46:52.871Z,6.5
2018-01-13T03:47:55.279Z,6.6
2018-01-13T03:48:57.692Z,6.5
2018-01-13T03:50:00.083Z,6.5
2018-01-13T03:51:02.783Z,6.5
2018-01-13T03:52:05.189Z,6.4
2018-01-13T03:53:07.594Z,6.5
2018-01-13T03:54:10.286Z,6.4
2018-01-13T03:55:12.691Z,6.5
2018-01-13T03:56:15.097Z,6.4
2018-01-13T03:57:17.506Z,6.4
2018-01-13T03:58:20.208Z,6.5
2018-01-13T03:59:22.613Z,6.4
2018-01-13T04:00:25.294Z,6.5
2018-01-13T04:01:27.984Z,6.5
2018-01-13T04:02:30.385Z,6.5
2018-01-13T04:03:32.793Z,6.5
2018-01-13T04:04:35.486Z,6.5
2018-01-13T04:05:37.885Z,6.5
2018-01-13T04:06:40.300Z,6.6
2018-01-13T04:07:42.710Z,6.6
2018-01-13T04:08:45.117Z,6.6
2018-01-13T04:09:47.525Z,6.6
2018-01-13T04:10:49.935Z,6.6
2018-01-13T04:11:52.341Z,6.6
2018-01-13T04:12:54.751Z,6.6
2018-01-13T04:13:57.142Z,6.6
2018-01-13T04:14:59.550Z,6.6
2018-01-13T04:16:02.558Z,6.6
2018-01-13T04:17:05.525Z,6.6
2018-01-13T04:18:08.216Z,6.6
2018-01-13T04:19:10.617Z,6.6
2018-01-13T04:20:13.018Z,6.6
2018-01-13T04:21:15.440Z,6.7
2018-01-13T04:22:17.846Z,6.7
2018-01-13T04:23:20.550Z,6.6
2018-01-13T04:24:22.959Z,6.6
2018-01-13T04:25:25.361Z,6.6
2018-01-13T04:26:27.768Z,6.7
2018-01-13T04:27:30.178Z,6.7
2018-01-13T04:28:32.588Z,6.6
2018-01-13T04:29:35.568Z,6.6
2018-01-13T04:30:37.958Z,6.6
2018-01-13T04:31:40.363Z,6.6
2018-01-13T04:32:42.777Z,6.5
2018-01-13T04:33:45.191Z,6.5
2018-01-13T04:34:47.589Z,6.5
2018-01-13T04:35:49.997Z,6.5
2018-01-13T04:36:52.396Z,6.5
2018-01-13T04:37:54.811Z,6.5
2018-01-13T04:38:57.500Z,6.5
2018-01-13T04:39:59.898Z,6.6
2018-01-13T04:41:02.313Z,6.5
2018-01-13T04:42:04.719Z,6.5
2018-01-13T04:43:07.128Z,6.5
2018-01-13T04:44:09.532Z,6.6
2018-01-13T04:45:11.927Z,6.5
2018-01-13T04:46:14.335Z,6.5
2018-01-13T04:47:17.314Z,6.5
2018-01-13T04:48:19.721Z,6.5
2018-01-13T04:49:22.122Z,6.5
2018-01-13T04:50:24.821Z,6.5
2018-01-13T04:51:27.222Z,6.5
2018-01-13T04:52:29.644Z,6.6
2018-01-13T04:53:32.323Z,6.6
2018-01-13T04:54:34.720Z,6.6
2018-01-13T04:55:37.122Z,6.6
2018-01-13T04:56:39.544Z,6.6
2018-01-13T04:57:41.950Z,6.7
2018-01-13T04:58:44.354Z,6.7
2018-01-13T04:59:47.045Z,6.7
2018-01-13T05:00:49.458Z,6.7
2018-01-13T05:01:51.849Z,6.7
2018-01-13T05:02:54.547Z,6.7
2018-01-13T05:03:56.946Z,6.7
2018-01-13T05:04:59.351Z,6.7
2018-01-13T05:06:02.042Z,6.7
2018-01-13T05:07:04.723Z,6.7
2018-01-13T05:08:07.129Z,6.7
2018-01-13T05:09:09.540Z,6.6
2018-01-13T05:10:11.936Z,6.6
2018-01-13T05:11:14.353Z,6.6
2018-01-13T05:12:17.039Z,6.6
2018-01-13T05:13:19.748Z,6.6
2018-01-13T05:14:22.155Z,6.6
2018-01-13T05:15:24.564Z,6.6
2018-01-13T05:16:27.518Z,6.6
2018-01-13T05:17:29.931Z,6.6
2018-01-13T05:18:32.327Z,6.6
2018-01-13T05:19:34.729Z,6.7
2018-01-13T05:20:37.140Z,6.7
2018-01-13T05:21:39.547Z,6.7
2018-01-13T05:22:41.958Z,6.7
2018-01-13T05:23:44.375Z,6.7
2018-01-13T05:24:46.780Z,6.6
2018-01-13T05:25:49.183Z,6.7
2018-01-13T05:26:51.591Z,6.6
2018-01-13T05:27:54.008Z,6.6
2018-01-13T05:28:56.412Z,6.6
2018-01-13T05:29:58.816Z,6.6
2018-01-13T05:31:01.230Z,6.6
2018-01-13T05:32:03.636Z,6.6
2018-01-13T05:33:06.045Z,6.6
2018-01-13T05:34:08.453Z,6.6
2018-01-13T05:35:10.845Z,6.6
2018-01-13T05:36:13.534Z,6.6
2018-01-13T05:37:16.224Z,6.6
2018-01-13T05:38:18.626Z,6.6
2018-01-13T05:39:21.030Z,6.6
2018-01-13T05:40:23.724Z,6.6
2018-01-13T05:41:26.126Z,6.5
2018-01-13T05:42:28.538Z,6.5
2018-01-13T05:43:31.228Z,6.5
2018-01-13T05:44:33.911Z,6.5
2018-01-13T05:45:36.320Z,6.5
2018-01-13T05:46:39.010Z,6.5
2018-01-13T05:47:41.418Z,6.4
2018-01-13T05:48:43.826Z,6.4
2018-01-13T05:49:46.223Z,6.4
2018-01-13T05:50:48.630Z,6.4
2018-01-13T05:51:51.044Z,6.4
2018-01-13T05:52:53.442Z,6.4
2018-01-13T05:53:55.846Z,6.4
2018-01-13T05:54:58.256Z,6.4
2018-01-13T05:56:00.658Z,6.4
2018-01-13T05:57:03.067Z,6.4
2018-01-13T05:58:05.475Z,6.4
2018-01-13T05:59:07.868Z,6.4
2018-01-13T06:00:10.274Z,6.4
2018-01-13T06:01:12.687Z,6.3
2018-01-13T06:02:15.079Z,6.3
2018-01-13T06:03:17.495Z,6.3
2018-01-13T06:04:20.179Z,6.3
2018-01-13T06:05:22.591Z,6.3
2018-01-13T06:06:24.999Z,6.3
2018-01-13T06:07:27.409Z,6.3
2018-01-13T06:08:29.800Z,6.3
2018-01-13T06:09:32.222Z,6.3
2018-01-13T06:10:34.627Z,6.3
2018-01-13T06:11:37.034Z,6.3
2018-01-13T06:12:39.438Z,6.3
2018-01-13T06:13:41.835Z,6.4
2018-01-13T06:14:44.240Z,6.4
2018-01-13T06:15:46.661Z,6.4
2018-01-13T06:16:49.341Z,6.4
2018-01-13T06:17:51.754Z,6.4
2018-01-13T06:18:54.154Z,6.4
2018-01-13T06:19:56.559Z,6.4
2018-01-13T06:20:58.965Z,6.4
2018-01-13T06:22:01.370Z,6.4
2018-01-13T06:23:03.768Z,6.4
2018-01-13T06:24:06.180Z,6.4
2018-01-13T06:25:08.870Z,6.4
2018-01-13T06:26:11.275Z,6.4
2018-01-13T06:27:13.672Z,6.4
2018-01-13T06:28:16.079Z,6.4
2018-01-13T06:29:18.491Z,6.5
2018-01-13T06:30:20.891Z,6.4
2018-01-13T06:31:23.297Z,6.5
2018-01-13T06:32:25.984Z,6.5
2018-01-13T06:33:28.394Z,6.5
2018-01-13T06:34:30.811Z,6.5
2018-01-13T06:35:33.217Z,6.5
2018-01-13T06:36:35.612Z,6.5
2018-01-13T06:37:38.017Z,6.6
2018-01-13T06:38:40.429Z,6.6
2018-01-13T06:39:42.835Z,6.5
2018-01-13T06:40:45.245Z,6.6
2018-01-13T06:41:47.640Z,6.6
2018-01-13T06:42:50.047Z,6.6
2018-01-13T06:43:52.452Z,6.6
2018-01-13T06:44:54.863Z,6.6
2018-01-13T06:45:57.273Z,6.6
2018-01-13T06:46:59.672Z,6.6
2018-01-13T06:48:02.072Z,6.6
2018-01-13T06:49:04.486Z,6.6
2018-01-13T06:50:06.889Z,6.7
2018-01-13T06:51:09.570Z,6.7
2018-01-13T06:52:11.977Z,6.7
2018-01-13T06:53:14.385Z,6.7
2018-01-13T06:54:16.789Z,6.7
2018-01-13T06:55:19.197Z,6.7
2018-01-13T06:56:21.608Z,6.7
2018-01-13T06:57:24.014Z,6.7
2018-01-13T06:58:26.697Z,6.7
2018-01-13T06:59:29.110Z,6.7
2018-01-13T07:00:31.509Z,6.7
2018-01-13T07:01:33.912Z,6.7
2018-01-13T07:02:36.320Z,6.6
2018-01-13T07:03:38.734Z,6.6
2018-01-13T07:04:41.140Z,6.6
2018-01-13T07:05:43.550Z,6.6
2018-01-13T07:06:45.951Z,6.6
2018-01-13T07:07:48.357Z,6.6
2018-01-13T07:08:50.769Z,6.6
2018-01-13T07:09:53.454Z,6.6
2018-01-13T07:10:55.860Z,6.6
2018-01-13T07:11:58.265Z,6.6
2018-01-13T07:13:00.668Z,6.5
2018-01-13T07:14:03.080Z,6.5
2018-01-13T07:15:05.486Z,6.5
2018-01-13T07:16:07.889Z,6.5
2018-01-13T07:17:10.301Z,6.6
2018-01-13T07:18:12.703Z,6.6
2018-01-13T07:19:15.106Z,6.6
2018-01-13T07:20:17.516Z,6.6
2018-01-13T07:21:19.911Z,6.6
2018-01-13T07:22:22.324Z,6.6
2018-01-13T07:23:24.724Z,6.6
2018-01-13T07:24:27.142Z,6.6
2018-01-13T07:25:29.556Z,6.6
2018-01-13T07:26:31.946Z,6.6
2018-01-13T07:27:34.353Z,6.6
2018-01-13T07:28:36.760Z,6.5
2018-01-13T07:29:39.165Z,6.5
2018-01-13T07:30:41.569Z,6.5
2018-01-13T07:31:43.964Z,6.5
2018-01-13T07:32:46.373Z,6.5
2018-01-13T07:33:48.796Z,6.4
2018-01-13T07:34:51.200Z,6.4
2018-01-13T07:35:53.607Z,6.4
2018-01-13T07:36:56.012Z,6.4
2018-01-13T07:37:58.417Z,6.4
2018-01-13T07:39:00.839Z,6.4
2018-01-13T07:40:03.243Z,6.4
2018-01-13T07:41:05.640Z,6.4
2018-01-13T07:42:08.045Z,6.4
2018-01-13T07:43:10.453Z,6.4
2018-01-13T07:44:12.861Z,6.4
2018-01-13T07:45:15.272Z,6.4
2018-01-13T07:46:17.674Z,6.4
2018-01-13T07:47:20.082Z,6.4
2018-01-13T07:48:22.498Z,6.4
2018-01-13T07:49:24.897Z,6.4
2018-01-13T07:50:27.309Z,6.4
2018-01-13T07:51:29.713Z,6.3
2018-01-13T07:52:32.408Z,6.4
2018-01-13T07:53:34.814Z,6.3
2018-01-13T07:54:37.214Z,6.3
2018-01-13T07:55:39.649Z,6.3
2018-01-13T07:56:42.031Z,6.2
2018-01-13T07:57:44.726Z,6.2
2018-01-13T07:58:47.137Z,6.3
2018-01-13T07:59:49.546Z,6.3
2018-01-13T08:00:51.951Z,6.3
2018-01-13T08:01:54.356Z,6.3
2018-01-13T08:02:56.753Z,6.3
2018-01-13T08:03:59.156Z,6.3
2018-01-13T08:05:01.573Z,6.3
2018-01-13T08:06:03.977Z,6.3
2018-01-13T08:07:06.374Z,6.3
2018-01-13T08:08:08.787Z,6.3
2018-01-13T08:09:11.187Z,6.3
2018-01-13T08:10:13.589Z,6.3
2018-01-13T08:11:15.995Z,6.4
2018-01-13T08:12:18.679Z,6.4
2018-01-13T08:13:21.077Z,6.4
2018-01-13T08:14:24.052Z,6.5
2018-01-13T08:15:26.453Z,6.5
2018-01-13T08:16:28.868Z,6.6
2018-01-13T08:17:31.282Z,6.6
2018-01-13T08:18:33.688Z,6.6
2018-01-13T08:19:36.095Z,6.6
2018-01-13T08:20:38.508Z,6.6
2018-01-13T08:21:40.924Z,6.6
2018-01-13T08:22:43.313Z,6.5
2018-01-13T08:23:45.727Z,6.5
2018-01-13T08:24:48.127Z,6.5
2018-01-13T08:25:50.528Z,6.5
2018-01-13T08:26:52.939Z,6.5
2018-01-13T08:27:55.635Z,6.5
2018-01-13T08:28:58.324Z,6.5
2018-01-13T08:30:00.740Z,6.5
2018-01-13T08:31:03.137Z,6.5
2018-01-13T08:32:05.543Z,6.5
2018-01-13T08:33:07.953Z,6.5
2018-01-13T08:34:10.358Z,6.5
2018-01-13T08:35:13.060Z,6.5
2018-01-13T08:36:15.471Z,6.5
2018-01-13T08:37:17.871Z,6.5
2018-01-13T08:38:20.289Z,6.5
2018-01-13T08:39:22.695Z,6.5
2018-01-13T08:40:25.081Z,6.5
2018-01-13T08:41:27.492Z,6.5
2018-01-13T08:42:29.897Z,6.5
2018-01-13T08:43:32.309Z,6.4
2018-01-13T08:44:34.711Z,6.5
2018-01-13T08:45:37.113Z,6.5
2018-01-13T08:46:39.516Z,6.5
2018-01-13T08:47:42.216Z,6.4
2018-01-13T08:48:44.622Z,6.5
2018-01-13T08:49:47.026Z,6.5
2018-01-13T08:50:49.433Z,6.5
2018-01-13T08:51:51.841Z,6.5
2018-01-13T08:52:54.522Z,6.4
2018-01-13T08:53:56.933Z,6.5
2018-01-13T08:54:59.339Z,6.5
2018-01-13T08:56:01.752Z,6.5
2018-01-13T08:57:04.155Z,6.4
2018-01-13T08:58:06.564Z,6.5
2018-01-13T08:59:09.261Z,6.5
2018-01-13T09:00:11.670Z,6.5
2018-01-13T09:01:14.066Z,6.5
2018-01-13T09:02:16.470Z,6.6
2018-01-13T09:03:18.872Z,6.6
2018-01-13T09:04:21.572Z,6.6
2018-01-13T09:05:23.977Z,6.6
2018-01-13T09:06:26.378Z,6.6
2018-01-13T09:07:28.770Z,6.5
2018-01-13T09:08:31.177Z,6.5
2018-01-13T09:09:33.582Z,6.5
2018-01-13T09:10:35.991Z,6.5
2018-01-13T09:11:38.384Z,6.5
2018-01-13T09:12:40.791Z,6.5
2018-01-13T09:13:43.213Z,6.5
2018-01-13T09:14:45.618Z,6.6
2018-01-13T09:15:48.030Z,6.6
2018-01-13T09:16:50.432Z,6.5
2018-01-13T09:17:52.836Z,6.5
2018-01-13T09:18:55.250Z,6.5
2018-01-13T09:19:57.656Z,6.5
2018-01-13T09:21:00.054Z,6.5
2018-01-13T09:22:02.464Z,6.5
2018-01-13T09:23:05.152Z,6.5
2018-01-13T09:24:07.563Z,6.5
2018-01-13T09:25:09.968Z,6.5
2018-01-13T09:26:12.391Z,6.5
2018-01-13T09:27:15.082Z,6.5
2018-01-13T09:28:17.756Z,6.6
2018-01-13T09:29:20.172Z,6.6
2018-01-13T09:30:22.573Z,6.5
2018-01-13T09:31:25.255Z,6.6
2018-01-13T09:32:27.655Z,6.5
2018-01-13T09:33:30.057Z,6.5
2018-01-13T09:34:32.467Z,6.5
2018-01-13T09:35:34.894Z,6.5
2018-01-13T09:36:37.294Z,6.5
2018-01-13T09:37:39.703Z,6.5
2018-01-13T09:38:42.116Z,6.5
2018-01-13T09:39:44.511Z,6.5
2018-01-13T09:40:46.919Z,6.5
2018-01-13T09:41:49.326Z,6.5
2018-01-13T09:42:52.068Z,6.5
2018-01-13T09:43:54.466Z,6.5
2018-01-13T09:44:56.876Z,6.5
2018-01-13T09:45:59.284Z,6.5
2018-01-13T09:47:01.697Z,6.5
2018-01-13T09:48:04.387Z,6.6
2018-01-13T09:49:06.788Z,6.6
2018-01-13T09:50:09.202Z,6.6
2018-01-13T09:51:11.908Z,6.6
2018-01-13T09:52:14.344Z,6.6
2018-01-13T09:53:16.742Z,6.6
2018-01-13T09:54:19.140Z,6.6
2018-01-13T09:55:21.545Z,6.6
2018-01-13T09:56:23.954Z,6.6
2018-01-13T09:57:26.358Z,6.6
2018-01-13T09:58:28.771Z,6.6
2018-01-13T09:59:31.447Z,6.6
2018-01-13T10:00:33.853Z,6.6
2018-01-13T10:01:36.270Z,6.6
2018-01-13T10:02:38.675Z,6.6
2018-01-13T10:03:41.415Z,6.6
2018-01-13T10:04:43.793Z,6.6
2018-01-13T10:05:46.188Z,6.6
2018-01-13T10:06:48.885Z,6.6
2018-01-13T10:07:51.577Z,6.6
2018-01-13T10:08:53.980Z,6.6
2018-01-13T10:09:56.392Z,6.6
2018-01-13T10:10:58.807Z,6.6
2018-01-13T10:12:01.213Z,6.6
2018-01-13T10:13:03.614Z,6.6
2018-01-13T10:14:06.023Z,6.6
2018-01-13T10:15:08.430Z,6.6
2018-01-13T10:16:10.835Z,6.6
2018-01-13T10:17:13.257Z,6.6
2018-01-13T10:18:15.652Z,6.6
2018-01-13T10:19:18.048Z,6.6
2018-01-13T10:20:20.465Z,6.6
2018-01-13T10:21:22.867Z,6.6
2018-01-13T10:22:25.277Z,6.6
2018-01-13T10:23:27.690Z,6.6
2018-01-13T10:24:30.092Z,6.6
2018-01-13T10:25:32.485Z,6.7
2018-01-13T10:26:35.464Z,6.7
2018-01-13T10:27:37.871Z,6.7
2018-01-13T10:28:40.272Z,6.7
2018-01-13T10:29:43.001Z,6.7
2018-01-13T10:30:45.404Z,6.7
2018-01-13T10:31:48.091Z,6.6
2018-01-13T10:32:50.512Z,6.6
2018-01-13T10:33:52.909Z,6.6
2018-01-13T10:34:55.313Z,6.6
2018-01-13T10:35:58.029Z,6.6
2018-01-13T10:37:00.434Z,6.6
2018-01-13T10:38:02.840Z,6.6
2018-01-13T10:39:05.251Z,6.6
2018-01-13T10:40:07.651Z,6.6
2018-01-13T10:41:10.057Z,6.7
2018-01-13T10:42:12.468Z,6.7
2018-01-13T10:43:15.473Z,6.7
2018-01-13T10:44:17.890Z,6.7
2018-01-13T10:45:20.581Z,6.8
2018-01-13T10:46:22.971Z,6.8
2018-01-13T10:47:25.376Z,6.8
2018-01-13T10:48:27.785Z,6.8
2018-01-13T10:49:30.189Z,6.8
2018-01-13T10:50:32.598Z,6.8
2018-01-13T10:51:35.005Z,6.9
2018-01-13T10:52:37.416Z,6.9
2018-01-13T10:53:39.818Z,6.9
2018-01-13T10:54:42.510Z,6.9
2018-01-13T10:55:44.911Z,6.9
2018-01-13T10:56:47.318Z,6.9
2018-01-13T10:57:50.020Z,6.9
2018-01-13T10:58:52.430Z,6.9
2018-01-13T10:59:55.118Z,6.9
2018-01-13T11:00:57.825Z,6.9
2018-01-13T11:02:00.230Z,6.9
2018-01-13T11:03:02.642Z,6.9
2018-01-13T11:04:05.049Z,6.8
2018-01-13T11:05:07.456Z,6.8
2018-01-13T11:06:10.148Z,6.8
2018-01-13T11:07:12.562Z,6.8
2018-01-13T11:08:14.962Z,6.8
2018-01-13T11:09:17.368Z,6.7
2018-01-13T11:10:19.779Z,6.7
2018-01-13T11:11:22.186Z,6.8
2018-01-13T11:12:24.590Z,6.8
2018-01-13T11:13:27.002Z,6.8
2018-01-13T11:14:29.406Z,6.8
2018-01-13T11:15:32.110Z,6.8
2018-01-13T11:16:34.513Z,6.7
2018-01-13T11:17:37.189Z,6.8
2018-01-13T11:18:39.598Z,6.8
2018-01-13T11:19:42.014Z,6.8
2018-01-13T11:20:44.424Z,6.8
2018-01-13T11:21:46.827Z,6.8
2018-01-13T11:22:49.232Z,6.8
2018-01-13T11:23:51.643Z,6.7
2018-01-13T11:24:54.040Z,6.7
2018-01-13T11:25:56.449Z,6.7
2018-01-13T11:26:58.866Z,6.8
2018-01-13T11:28:01.552Z,6.8
2018-01-13T11:29:03.974Z,6.9
2018-01-13T11:30:06.383Z,6.8
2018-01-13T11:31:08.781Z,6.8
2018-01-13T11:32:11.196Z,6.9
2018-01-13T11:33:13.602Z,6.9
2018-01-13T11:34:15.999Z,6.9
2018-01-13T11:35:18.413Z,6.9
2018-01-13T11:36:20.808Z,6.9
2018-01-13T11:37:23.218Z,6.9
2018-01-13T11:38:25.626Z,6.9
2018-01-13T11:39:28.035Z,6.9
2018-01-13T11:40:30.447Z,6.9
2018-01-13T11:41:32.866Z,7
2018-01-13T11:42:35.265Z,6.9
2018-01-13T11:43:37.970Z,6.9
2018-01-13T11:44:40.372Z,7
2018-01-13T11:45:42.783Z,7
2018-01-13T11:46:45.185Z,7
2018-01-13T11:47:47.876Z,7
2018-01-13T11:48:50.279Z,7
2018-01-13T11:49:52.690Z,6.9
2018-01-13T11:50:55.110Z,6.9
2018-01-13T11:51:57.515Z,7
2018-01-13T11:52:59.927Z,7
2018-01-13T11:54:02.326Z,7
2018-01-13T11:55:05.021Z,7
2018-01-13T11:56:07.428Z,7.1
2018-01-13T11:57:09.837Z,7.1
2018-01-13T11:58:12.235Z,7.2
2018-01-13T11:59:14.647Z,7.2
2018-01-13T12:00:17.055Z,7.2
2018-01-13T12:01:19.750Z,7.3
2018-01-13T12:02:22.153Z,7.3
2018-01-13T12:03:24.567Z,7.3
2018-01-13T12:04:26.975Z,7.3
2018-01-13T12:05:29.393Z,7.3
2018-01-13T12:06:31.794Z,7.3
2018-01-13T12:07:34.198Z,7.3
2018-01-13T12:08:36.603Z,7.3
2018-01-13T12:09:39.011Z,7.3
2018-01-13T12:10:41.420Z,7.3
2018-01-13T12:11:43.830Z,7.3
2018-01-13T12:12:46.226Z,7.3
2018-01-13T12:13:48.638Z,7.3
2018-01-13T12:14:51.047Z,7.3
2018-01-13T12:15:53.460Z,7.2
2018-01-13T12:16:55.860Z,7.2
2018-01-13T12:17:58.269Z,7.3
2018-01-13T12:19:00.670Z,7.3
2018-01-13T12:20:03.089Z,7.3
2018-01-13T12:21:05.496Z,7.3
2018-01-13T12:22:07.898Z,7.3
2018-01-13T12:23:10.305Z,7.3
2018-01-13T12:24:12.986Z,7.2
2018-01-13T12:25:15.680Z,7.2
2018-01-13T12:26:18.098Z,7.2
2018-01-13T12:27:20.505Z,7.2
2018-01-13T12:28:23.196Z,7.2
2018-01-13T12:29:25.601Z,7.2
2018-01-13T12:30:28.008Z,7.2
2018-01-13T12:31:30.425Z,7.2
2018-01-13T12:32:32.843Z,7.2
2018-01-13T12:33:35.240Z,7.2
2018-01-13T12:34:37.942Z,7.2
2018-01-13T12:35:40.343Z,7.2
2018-01-13T12:36:42.753Z,7.1
2018-01-13T12:37:45.160Z,7.1
2018-01-13T12:38:47.563Z,7.1
2018-01-13T12:39:49.969Z,7.1
2018-01-13T12:40:52.389Z,7.2
2018-01-13T12:41:54.791Z,7.2
2018-01-13T12:42:57.197Z,7.2
2018-01-13T12:43:59.606Z,7.2
2018-01-13T12:45:02.317Z,7.1
2018-01-13T12:46:04.731Z,7.2
2018-01-13T12:47:07.142Z,7.1
2018-01-13T12:48:09.542Z,7.1
2018-01-13T12:49:12.233Z,7.1
2018-01-13T12:50:14.657Z,7
2018-01-13T12:51:17.064Z,7
2018-01-13T12:52:19.469Z,7
2018-01-13T12:53:21.871Z,7
2018-01-13T12:54:24.278Z,7
2018-01-13T12:55:26.681Z,6.9
2018-01-13T12:56:29.093Z,6.9
2018-01-13T12:57:31.773Z,6.8
2018-01-13T12:58:34.460Z,6.8
2018-01-13T12:59:36.874Z,6.8
2018-01-13T13:00:39.278Z,6.8
2018-01-13T13:01:41.680Z,6.8
2018-01-13T13:02:44.368Z,6.8
2018-01-13T13:03:46.773Z,6.8
2018-01-13T13:04:49.187Z,6.8
2018-01-13T13:05:51.594Z,6.8
2018-01-13T13:06:53.996Z,6.8
2018-01-13T13:07:56.404Z,6.8
2018-01-13T13:08:58.822Z,6.8
2018-01-13T13:10:01.222Z,6.8
2018-01-13T13:11:03.637Z,6.8
2018-01-13T13:12:06.028Z,6.8
2018-01-13T13:13:08.775Z,6.9
2018-01-13T13:14:11.192Z,6.9
2018-01-13T13:15:13.601Z,6.9
2018-01-13T13:16:16.290Z,7
2018-01-13T13:17:18.978Z,7
2018-01-13T13:18:21.388Z,7
2018-01-13T13:19:23.790Z,7
2018-01-13T13:20:26.194Z,7
2018-01-13T13:21:28.610Z,7.1
2018-01-13T13:22:31.015Z,7
2018-01-13T13:23:33.419Z,7.1
2018-01-13T13:24:35.821Z,7.1
2018-01-13T13:25:38.220Z,7.1
2018-01-13T13:26:40.634Z,7.1
2018-01-13T13:27:43.043Z,7.1
2018-01-13T13:28:45.442Z,7.1
2018-01-13T13:29:47.854Z,7.1
2018-01-13T13:30:50.260Z,7.1
2018-01-13T13:31:52.980Z,7.1
2018-01-13T13:32:55.392Z,7.1
2018-01-13T13:33:57.802Z,7
2018-01-13T13:35:00.213Z,7
2018-01-13T13:36:02.630Z,7
2018-01-13T13:37:05.027Z,7
2018-01-13T13:38:07.463Z,7
2018-01-13T13:39:09.830Z,6.9
2018-01-13T13:40:12.245Z,6.9
2018-01-13T13:41:14.934Z,6.8
2018-01-13T13:42:17.338Z,6.8
2018-01-13T13:43:19.737Z,6.8
2018-01-13T13:44:22.148Z,6.7
2018-01-13T13:45:24.556Z,6.6
2018-01-13T13:46:26.965Z,6.6
2018-01-13T13:47:29.360Z,6.6
2018-01-13T13:48:31.768Z,6.5
2018-01-13T13:49:34.175Z,6.5
2018-01-13T13:50:36.954Z,6.5
2018-01-13T13:51:39.359Z,6.5
2018-01-13T13:52:41.766Z,6.4
2018-01-13T13:53:44.172Z,6.4
2018-01-13T13:54:46.587Z,6.4
2018-01-13T13:55:48.987Z,6.4
2018-01-13T13:56:51.399Z,6.3
2018-01-13T13:57:53.808Z,6.3
2018-01-13T13:58:56.212Z,6.3
2018-01-13T13:59:58.608Z,6.3
2018-01-13T14:01:22.124Z,6.2
2018-01-13T14:02:30.693Z,6.2
2018-01-13T14:03:33.103Z,6.2
2018-01-13T14:04:35.507Z,6.1
2018-01-13T14:05:37.911Z,6.1
2018-01-13T14:06:40.317Z,6.2
2018-01-13T14:07:42.724Z,6.1
2018-01-13T14:08:45.132Z,6.1
2018-01-13T14:09:47.548Z,6.2
2018-01-13T14:10:49.949Z,6.2
2018-01-13T14:11:52.359Z,6.2
2018-01-13T14:12:54.767Z,6.2
2018-01-13T14:13:57.466Z,6.3
2018-01-13T14:15:00.158Z,6.3
2018-01-13T14:16:02.569Z,6.3
2018-01-13T14:17:04.970Z,6.3
2018-01-13T14:18:07.382Z,6.3
2018-01-13T14:19:09.793Z,6.3
2018-01-13T14:20:12.486Z,6.3
2018-01-13T14:21:15.173Z,6.3
2018-01-13T14:22:17.574Z,6.3
2018-01-13T14:23:20.278Z,6.2
2018-01-13T14:24:22.681Z,6.3